sensor_id;sensor_type;location;lat;lon;timestamp;P1;durP1;ratioP1;P2;durP2;ratioP2
18893;SDS011;9579;49.488;8.226;2024-01-30T00:02:41;20.20;;;18.33;;
18893;SDS011;9579;49.488;8.226;2024-01-30T00:05:29;21.20;;;19.30;;
18893;SDS011;9579;49.488;8.226;2024-01-30T00:08:16;20.53;;;18.53;;
18893;SDS011;9579;49.488;8.226;2024-01-30T00:11:05;18.23;;;16.53;;
18893;SDS011;9579;49.488;8.226;2024-01-30T00:13:54;18.97;;;17.27;;
18893;SDS011;9579;49.488;8.226;2024-01-30T00:16:41;18.13;;;16.50;;
18893;SDS011;9579;49.488;8.226;2024-01-30T00:19:28;19.60;;;17.80;;
18893;SDS011;9579;49.488;8.226;2024-01-30T00:22:15;19.67;;;17.87;;
18893;SDS011;9579;49.488;8.226;2024-01-30T00:25:03;19.77;;;17.90;;
18893;SDS011;9579;49.488;8.226;2024-01-30T00:27:51;19.10;;;17.40;;
18893;SDS011;9579;49.488;8.226;2024-01-30T00:30:38;16.80;;;15.30;;
18893;SDS011;9579;49.488;8.226;2024-01-30T00:33:25;19.10;;;17.30;;
18893;SDS011;9579;49.488;8.226;2024-01-30T00:36:12;19.30;;;17.50;;
18893;SDS011;9579;49.488;8.226;2024-01-30T00:38:59;17.97;;;16.37;;
18893;SDS011;9579;49.488;8.226;2024-01-30T00:41:47;16.60;;;15.10;;
18893;SDS011;9579;49.488;8.226;2024-01-30T00:44:36;18.00;;;16.40;;
18893;SDS011;9579;49.488;8.226;2024-01-30T00:47:23;18.37;;;16.67;;
18893;SDS011;9579;49.488;8.226;2024-01-30T00:50:10;18.50;;;16.90;;
18893;SDS011;9579;49.488;8.226;2024-01-30T00:52:58;18.77;;;16.97;;
18893;SDS011;9579;49.488;8.226;2024-01-30T00:55:45;18.03;;;16.33;;
18893;SDS011;9579;49.488;8.226;2024-01-30T00:58:32;16.87;;;15.37;;
18893;SDS011;9579;49.488;8.226;2024-01-30T01:01:20;18.83;;;17.13;;
18893;SDS011;9579;49.488;8.226;2024-01-30T01:04:07;18.73;;;17.03;;
18893;SDS011;9579;49.488;8.226;2024-01-30T01:06:54;18.30;;;16.63;;
18893;SDS011;9579;49.488;8.226;2024-01-30T01:09:41;18.93;;;17.23;;
18893;SDS011;9579;49.488;8.226;2024-01-30T01:12:28;17.97;;;16.27;;
18893;SDS011;9579;49.488;8.226;2024-01-30T01:15:15;17.20;;;15.60;;
18893;SDS011;9579;49.488;8.226;2024-01-30T01:18:03;18.00;;;16.40;;
18893;SDS011;9579;49.488;8.226;2024-01-30T01:20:51;17.70;;;16.17;;
18893;SDS011;9579;49.488;8.226;2024-01-30T01:23:38;16.80;;;15.30;;
18893;SDS011;9579;49.488;8.226;2024-01-30T01:26:25;17.53;;;15.93;;
18893;SDS011;9579;49.488;8.226;2024-01-30T01:29:12;17.93;;;16.33;;
18893;SDS011;9579;49.488;8.226;2024-01-30T01:31:59;16.50;;;15.00;;
18893;SDS011;9579;49.488;8.226;2024-01-30T01:34:47;16.23;;;14.83;;
18893;SDS011;9579;49.488;8.226;2024-01-30T01:37:34;17.67;;;15.90;;
18893;SDS011;9579;49.488;8.226;2024-01-30T01:40:22;16.23;;;14.83;;
18893;SDS011;9579;49.488;8.226;2024-01-30T01:43:09;16.23;;;14.73;;
18893;SDS011;9579;49.488;8.226;2024-01-30T01:45:56;16.33;;;14.93;;
18893;SDS011;9579;49.488;8.226;2024-01-30T01:48:43;16.00;;;14.60;;
18893;SDS011;9579;49.488;8.226;2024-01-30T01:51:33;17.57;;;15.97;;
18893;SDS011;9579;49.488;8.226;2024-01-30T01:54:21;17.33;;;15.73;;
18893;SDS011;9579;49.488;8.226;2024-01-30T01:57:10;17.50;;;15.87;;
18893;SDS011;9579;49.488;8.226;2024-01-30T01:59:57;17.27;;;15.67;;
18893;SDS011;9579;49.488;8.226;2024-01-30T02:02:45;14.10;;;12.90;;
18893;SDS011;9579;49.488;8.226;2024-01-30T02:05:32;16.43;;;14.90;;
18893;SDS011;9579;49.488;8.226;2024-01-30T02:08:20;16.53;;;14.93;;
18893;SDS011;9579;49.488;8.226;2024-01-30T02:11:07;16.57;;;15.07;;
18893;SDS011;9579;49.488;8.226;2024-01-30T02:13:55;16.83;;;15.33;;
18893;SDS011;9579;49.488;8.226;2024-01-30T02:16:42;17.37;;;15.67;;
18893;SDS011;9579;49.488;8.226;2024-01-30T02:19:29;17.53;;;15.93;;
18893;SDS011;9579;49.488;8.226;2024-01-30T02:22:17;18.20;;;16.43;;
18893;SDS011;9579;49.488;8.226;2024-01-30T02:25:05;17.50;;;15.90;;
18893;SDS011;9579;49.488;8.226;2024-01-30T02:27:52;17.03;;;15.53;;
18893;SDS011;9579;49.488;8.226;2024-01-30T02:30:39;18.73;;;16.93;;
18893;SDS011;9579;49.488;8.226;2024-01-30T02:33:26;18.47;;;16.67;;
18893;SDS011;9579;49.488;8.226;2024-01-30T02:36:13;19.07;;;17.27;;
18893;SDS011;9579;49.488;8.226;2024-01-30T02:39:02;18.43;;;16.73;;
18893;SDS011;9579;49.488;8.226;2024-01-30T02:41:50;16.80;;;15.30;;
18893;SDS011;9579;49.488;8.226;2024-01-30T02:44:37;16.13;;;14.63;;
18893;SDS011;9579;49.488;8.226;2024-01-30T02:47:24;17.83;;;16.23;;
18893;SDS011;9579;49.488;8.226;2024-01-30T02:50:11;16.23;;;14.73;;
18893;SDS011;9579;49.488;8.226;2024-01-30T02:53:00;16.30;;;14.77;;
18893;SDS011;9579;49.488;8.226;2024-01-30T02:55:48;15.40;;;14.07;;
18893;SDS011;9579;49.488;8.226;2024-01-30T02:58:35;17.93;;;16.30;;
18893;SDS011;9579;49.488;8.226;2024-01-30T03:01:22;18.03;;;16.43;;
18893;SDS011;9579;49.488;8.226;2024-01-30T03:04:10;18.00;;;16.40;;
18893;SDS011;9579;49.488;8.226;2024-01-30T03:06:57;18.57;;;16.87;;
18893;SDS011;9579;49.488;8.226;2024-01-30T03:09:44;15.73;;;14.33;;
18893;SDS011;9579;49.488;8.226;2024-01-30T03:12:33;16.63;;;15.13;;
18893;SDS011;9579;49.488;8.226;2024-01-30T03:15:20;16.10;;;14.40;;
18893;SDS011;9579;49.488;8.226;2024-01-30T03:18:07;17.90;;;16.20;;
18893;SDS011;9579;49.488;8.226;2024-01-30T03:20:54;18.70;;;16.53;;
18893;SDS011;9579;49.488;8.226;2024-01-30T03:23:41;17.17;;;15.60;;
18893;SDS011;9579;49.488;8.226;2024-01-30T03:26:28;17.20;;;15.50;;
18893;SDS011;9579;49.488;8.226;2024-01-30T03:29:16;17.07;;;15.57;;
18893;SDS011;9579;49.488;8.226;2024-01-30T03:32:03;19.17;;;17.27;;
18893;SDS011;9579;49.488;8.226;2024-01-30T03:34:51;17.27;;;15.67;;
18893;SDS011;9579;49.488;8.226;2024-01-30T03:37:38;18.77;;;16.87;;
18893;SDS011;9579;49.488;8.226;2024-01-30T03:40:25;18.47;;;16.67;;
18893;SDS011;9579;49.488;8.226;2024-01-30T03:43:12;17.93;;;16.23;;
18893;SDS011;9579;49.488;8.226;2024-01-30T03:46:00;18.20;;;16.50;;
18893;SDS011;9579;49.488;8.226;2024-01-30T03:48:47;18.43;;;16.73;;
18893;SDS011;9579;49.488;8.226;2024-01-30T03:51:34;17.47;;;15.83;;
18893;SDS011;9579;49.488;8.226;2024-01-30T03:54:21;18.23;;;16.43;;
18893;SDS011;9579;49.488;8.226;2024-01-30T03:57:08;17.93;;;16.13;;
18893;SDS011;9579;49.488;8.226;2024-01-30T03:59:55;17.90;;;16.13;;
18893;SDS011;9579;49.488;8.226;2024-01-30T04:02:44;17.47;;;15.70;;
18893;SDS011;9579;49.488;8.226;2024-01-30T04:05:31;17.63;;;15.87;;
18893;SDS011;9579;49.488;8.226;2024-01-30T04:08:18;15.10;;;13.60;;
18893;SDS011;9579;49.488;8.226;2024-01-30T04:11:06;16.90;;;15.30;;
18893;SDS011;9579;49.488;8.226;2024-01-30T04:13:53;16.77;;;15.17;;
18893;SDS011;9579;49.488;8.226;2024-01-30T04:16:40;16.10;;;14.60;;
18893;SDS011;9579;49.488;8.226;2024-01-30T04:19:28;17.47;;;15.60;;
18893;SDS011;9579;49.488;8.226;2024-01-30T04:22:15;18.43;;;16.80;;
18893;SDS011;9579;49.488;8.226;2024-01-30T04:25:02;19.23;;;17.33;;
18893;SDS011;9579;49.488;8.226;2024-01-30T04:27:50;18.83;;;16.93;;
18893;SDS011;9579;49.488;8.226;2024-01-30T04:30:37;19.63;;;17.63;;
18893;SDS011;9579;49.488;8.226;2024-01-30T04:33:24;15.47;;;13.97;;
18893;SDS011;9579;49.488;8.226;2024-01-30T04:36:12;17.33;;;15.53;;
18893;SDS011;9579;49.488;8.226;2024-01-30T04:38:59;17.37;;;15.67;;
18893;SDS011;9579;49.488;8.226;2024-01-30T04:41:46;18.40;;;16.60;;
18893;SDS011;9579;49.488;8.226;2024-01-30T04:44:33;16.40;;;14.40;;
18893;SDS011;9579;49.488;8.226;2024-01-30T04:47:20;17.60;;;15.90;;
18893;SDS011;9579;49.488;8.226;2024-01-30T04:50:08;18.03;;;16.23;;
18893;SDS011;9579;49.488;8.226;2024-01-30T04:52:56;20.17;;;18.10;;
18893;SDS011;9579;49.488;8.226;2024-01-30T04:55:43;21.40;;;19.30;;
18893;SDS011;9579;49.488;8.226;2024-01-30T04:58:30;20.03;;;18.00;;
18893;SDS011;9579;49.488;8.226;2024-01-30T05:01:17;20.90;;;18.73;;
18893;SDS011;9579;49.488;8.226;2024-01-30T05:04:06;20.70;;;18.70;;
18893;SDS011;9579;49.488;8.226;2024-01-30T05:06:53;19.73;;;17.83;;
18893;SDS011;9579;49.488;8.226;2024-01-30T05:09:42;20.43;;;18.50;;
18893;SDS011;9579;49.488;8.226;2024-01-30T05:12:29;19.00;;;17.20;;
18893;SDS011;9579;49.488;8.226;2024-01-30T05:15:16;20.33;;;18.33;;
18893;SDS011;9579;49.488;8.226;2024-01-30T05:20:44;17.97;;;16.17;;
18893;SDS011;9579;49.488;8.226;2024-01-30T05:23:33;17.07;;;15.33;;
18893;SDS011;9579;49.488;8.226;2024-01-30T05:26:25;19.57;;;17.57;;
18893;SDS011;9579;49.488;8.226;2024-01-30T05:29:15;20.00;;;18.07;;
18893;SDS011;9579;49.488;8.226;2024-01-30T05:32:16;19.13;;;17.30;;
18893;SDS011;9579;49.488;8.226;2024-01-30T05:35:04;20.30;;;18.30;;
18893;SDS011;9579;49.488;8.226;2024-01-30T05:37:53;18.77;;;16.87;;
18893;SDS011;9579;49.488;8.226;2024-01-30T05:40:41;18.83;;;17.10;;
18893;SDS011;9579;49.488;8.226;2024-01-30T05:43:30;19.57;;;17.57;;
18893;SDS011;9579;49.488;8.226;2024-01-30T05:46:17;20.23;;;18.13;;
18893;SDS011;9579;49.488;8.226;2024-01-30T05:49:07;19.03;;;17.23;;
18893;SDS011;9579;49.488;8.226;2024-01-30T05:51:55;17.33;;;15.63;;
18893;SDS011;9579;49.488;8.226;2024-01-30T05:54:43;19.00;;;17.00;;
18893;SDS011;9579;49.488;8.226;2024-01-30T06:00:08;19.17;;;17.37;;
18893;SDS011;9579;49.488;8.226;2024-01-30T06:02:57;18.73;;;16.93;;
18893;SDS011;9579;49.488;8.226;2024-01-30T06:05:47;17.97;;;16.27;;
18893;SDS011;9579;49.488;8.226;2024-01-30T06:08:35;18.63;;;16.83;;
18893;SDS011;9579;49.488;8.226;2024-01-30T06:11:23;20.43;;;18.33;;
18893;SDS011;9579;49.488;8.226;2024-01-30T06:14:11;22.67;;;20.20;;
18893;SDS011;9579;49.488;8.226;2024-01-30T06:17:00;22.43;;;19.17;;
18893;SDS011;9579;49.488;8.226;2024-01-30T06:19:48;19.97;;;17.83;;
18893;SDS011;9579;49.488;8.226;2024-01-30T06:22:36;21.20;;;19.00;;
18893;SDS011;9579;49.488;8.226;2024-01-30T06:25:23;21.57;;;19.37;;
18893;SDS011;9579;49.488;8.226;2024-01-30T06:28:11;19.63;;;17.50;;
18893;SDS011;9579;49.488;8.226;2024-01-30T06:31:00;21.93;;;19.53;;
18893;SDS011;9579;49.488;8.226;2024-01-30T06:33:49;18.73;;;16.73;;
18893;SDS011;9579;49.488;8.226;2024-01-30T06:36:37;20.73;;;18.57;;
18893;SDS011;9579;49.488;8.226;2024-01-30T06:39:25;20.93;;;17.70;;
18893;SDS011;9579;49.488;8.226;2024-01-30T06:42:13;20.77;;;18.67;;
18893;SDS011;9579;49.488;8.226;2024-01-30T06:45:00;18.00;;;16.20;;
18893;SDS011;9579;49.488;8.226;2024-01-30T06:47:47;21.47;;;19.07;;
18893;SDS011;9579;49.488;8.226;2024-01-30T06:50:36;19.50;;;17.50;;
18893;SDS011;9579;49.488;8.226;2024-01-30T06:53:23;25.83;;;18.53;;
18893;SDS011;9579;49.488;8.226;2024-01-30T06:56:12;20.57;;;18.40;;
18893;SDS011;9579;49.488;8.226;2024-01-30T06:58:59;20.70;;;17.30;;
18893;SDS011;9579;49.488;8.226;2024-01-30T07:01:46;24.13;;;19.50;;
18893;SDS011;9579;49.488;8.226;2024-01-30T07:04:34;23.30;;;20.33;;
18893;SDS011;9579;49.488;8.226;2024-01-30T07:07:23;23.90;;;20.23;;
18893;SDS011;9579;49.488;8.226;2024-01-30T07:10:10;22.83;;;19.20;;
18893;SDS011;9579;49.488;8.226;2024-01-30T07:12:58;20.27;;;18.07;;
18893;SDS011;9579;49.488;8.226;2024-01-30T07:15:46;21.57;;;18.97;;
18893;SDS011;9579;49.488;8.226;2024-01-30T07:18:36;23.00;;;20.50;;
18893;SDS011;9579;49.488;8.226;2024-01-30T07:21:23;25.83;;;23.20;;
18893;SDS011;9579;49.488;8.226;2024-01-30T07:24:14;23.20;;;20.90;;
18893;SDS011;9579;49.488;8.226;2024-01-30T07:27:02;23.60;;;21.20;;
18893;SDS011;9579;49.488;8.226;2024-01-30T07:29:49;22.93;;;20.37;;
18893;SDS011;9579;49.488;8.226;2024-01-30T07:32:37;21.67;;;19.47;;
18893;SDS011;9579;49.488;8.226;2024-01-30T07:35:24;24.40;;;22.00;;
18893;SDS011;9579;49.488;8.226;2024-01-30T07:40:52;27.47;;;22.37;;
18893;SDS011;9579;49.488;8.226;2024-01-30T07:43:46;24.90;;;19.60;;
18893;SDS011;9579;49.488;8.226;2024-01-30T07:46:33;22.33;;;19.93;;
18893;SDS011;9579;49.488;8.226;2024-01-30T07:49:21;26.53;;;21.53;;
18893;SDS011;9579;49.488;8.226;2024-01-30T07:52:08;22.33;;;19.37;;
18893;SDS011;9579;49.488;8.226;2024-01-30T07:54:56;22.43;;;19.17;;
18893;SDS011;9579;49.488;8.226;2024-01-30T07:57:45;22.97;;;20.57;;
18893;SDS011;9579;49.488;8.226;2024-01-30T08:00:33;24.20;;;20.33;;
18893;SDS011;9579;49.488;8.226;2024-01-30T08:03:21;22.90;;;19.03;;
18893;SDS011;9579;49.488;8.226;2024-01-30T08:06:09;24.33;;;20.83;;
18893;SDS011;9579;49.488;8.226;2024-01-30T08:08:57;21.80;;;19.20;;
18893;SDS011;9579;49.488;8.226;2024-01-30T08:14:22;22.73;;;20.20;;
18893;SDS011;9579;49.488;8.226;2024-01-30T08:17:12;23.53;;;20.33;;
18893;SDS011;9579;49.488;8.226;2024-01-30T08:19:59;20.47;;;18.43;;
18893;SDS011;9579;49.488;8.226;2024-01-30T08:22:49;21.30;;;19.10;;
18893;SDS011;9579;49.488;8.226;2024-01-30T08:25:36;21.07;;;19.00;;
18893;SDS011;9579;49.488;8.226;2024-01-30T08:28:23;21.77;;;19.67;;
18893;SDS011;9579;49.488;8.226;2024-01-30T08:31:13;23.73;;;21.33;;
18893;SDS011;9579;49.488;8.226;2024-01-30T08:34:00;24.13;;;21.80;;
18893;SDS011;9579;49.488;8.226;2024-01-30T08:36:47;21.17;;;19.03;;
18893;SDS011;9579;49.488;8.226;2024-01-30T08:39:34;22.23;;;19.70;;
18893;SDS011;9579;49.488;8.226;2024-01-30T08:42:22;24.37;;;20.73;;
18893;SDS011;9579;49.488;8.226;2024-01-30T08:45:09;21.40;;;19.33;;
18893;SDS011;9579;49.488;8.226;2024-01-30T08:47:59;21.63;;;19.40;;
18893;SDS011;9579;49.488;8.226;2024-01-30T08:50:46;20.87;;;18.87;;
18893;SDS011;9579;49.488;8.226;2024-01-30T08:56:09;20.50;;;18.60;;
18893;SDS011;9579;49.488;8.226;2024-01-30T08:58:56;20.23;;;18.43;;
18893;SDS011;9579;49.488;8.226;2024-01-30T09:01:43;21.00;;;19.07;;
18893;SDS011;9579;49.488;8.226;2024-01-30T09:04:33;21.10;;;19.03;;
18893;SDS011;9579;49.488;8.226;2024-01-30T09:07:20;21.27;;;19.27;;
18893;SDS011;9579;49.488;8.226;2024-01-30T09:10:08;22.37;;;20.37;;
18893;SDS011;9579;49.488;8.226;2024-01-30T09:12:57;19.80;;;17.90;;
18893;SDS011;9579;49.488;8.226;2024-01-30T09:15:44;19.83;;;18.03;;
18893;SDS011;9579;49.488;8.226;2024-01-30T09:18:32;20.37;;;18.53;;
18893;SDS011;9579;49.488;8.226;2024-01-30T09:21:20;20.30;;;18.50;;
18893;SDS011;9579;49.488;8.226;2024-01-30T09:24:08;20.03;;;18.23;;
18893;SDS011;9579;49.488;8.226;2024-01-30T09:26:55;20.17;;;18.27;;
18893;SDS011;9579;49.488;8.226;2024-01-30T09:29:42;20.97;;;19.07;;
18893;SDS011;9579;49.488;8.226;2024-01-30T09:32:30;19.33;;;17.57;;
18893;SDS011;9579;49.488;8.226;2024-01-30T09:35:17;19.90;;;18.00;;
18893;SDS011;9579;49.488;8.226;2024-01-30T09:38:05;20.97;;;19.07;;
18893;SDS011;9579;49.488;8.226;2024-01-30T09:40:53;22.67;;;20.57;;
18893;SDS011;9579;49.488;8.226;2024-01-30T09:43:41;21.53;;;19.63;;
18893;SDS011;9579;49.488;8.226;2024-01-30T09:46:34;21.53;;;19.53;;
18893;SDS011;9579;49.488;8.226;2024-01-30T09:49:21;21.67;;;19.63;;
18893;SDS011;9579;49.488;8.226;2024-01-30T09:52:09;20.73;;;18.93;;
18893;SDS011;9579;49.488;8.226;2024-01-30T09:54:59;21.80;;;19.90;;
18893;SDS011;9579;49.488;8.226;2024-01-30T09:57:47;20.07;;;18.23;;
18893;SDS011;9579;49.488;8.226;2024-01-30T10:00:34;19.60;;;17.80;;
18893;SDS011;9579;49.488;8.226;2024-01-30T10:03:22;19.03;;;17.33;;
18893;SDS011;9579;49.488;8.226;2024-01-30T10:06:09;18.60;;;16.97;;
18893;SDS011;9579;49.488;8.226;2024-01-30T10:08:57;18.93;;;17.13;;
18893;SDS011;9579;49.488;8.226;2024-01-30T10:11:50;19.10;;;17.40;;
18893;SDS011;9579;49.488;8.226;2024-01-30T10:14:38;18.80;;;17.10;;
18893;SDS011;9579;49.488;8.226;2024-01-30T10:20:13;19.23;;;17.57;;
18893;SDS011;9579;49.488;8.226;2024-01-30T10:23:01;19.30;;;17.53;;
18893;SDS011;9579;49.488;8.226;2024-01-30T10:25:50;18.17;;;16.67;;
18893;SDS011;9579;49.488;8.226;2024-01-30T10:28:39;20.53;;;18.60;;
18893;SDS011;9579;49.488;8.226;2024-01-30T10:31:27;20.57;;;18.67;;
18893;SDS011;9579;49.488;8.226;2024-01-30T10:34:14;20.43;;;18.63;;
18893;SDS011;9579;49.488;8.226;2024-01-30T10:37:06;18.80;;;17.20;;
18893;SDS011;9579;49.488;8.226;2024-01-30T10:39:58;21.60;;;19.60;;
18893;SDS011;9579;49.488;8.226;2024-01-30T10:42:53;21.23;;;19.33;;
18893;SDS011;9579;49.488;8.226;2024-01-30T10:50:59;20.97;;;19.10;;
18893;SDS011;9579;49.488;8.226;2024-01-30T10:54:00;22.03;;;19.93;;
18893;SDS011;9579;49.488;8.226;2024-01-30T11:12:52;19.87;;;17.90;;
18893;SDS011;9579;49.488;8.226;2024-01-30T11:15:53;20.53;;;18.63;;
18893;SDS011;9579;49.488;8.226;2024-01-30T11:18:49;21.67;;;19.77;;
18893;SDS011;9579;49.488;8.226;2024-01-30T11:21:41;21.63;;;19.73;;
18893;SDS011;9579;49.488;8.226;2024-01-30T11:24:41;19.93;;;18.13;;
18893;SDS011;9579;49.488;8.226;2024-01-30T11:27:30;19.67;;;17.87;;
18893;SDS011;9579;49.488;8.226;2024-01-30T11:30:24;21.17;;;19.23;;
18893;SDS011;9579;49.488;8.226;2024-01-30T11:33:30;20.70;;;19.00;;
18893;SDS011;9579;49.488;8.226;2024-01-30T11:36:20;21.47;;;19.57;;
18893;SDS011;9579;49.488;8.226;2024-01-30T11:39:12;21.00;;;19.20;;
18893;SDS011;9579;49.488;8.226;2024-01-30T11:42:01;20.23;;;18.43;;
18893;SDS011;9579;49.488;8.226;2024-01-30T11:44:51;20.77;;;18.97;;
18893;SDS011;9579;49.488;8.226;2024-01-30T11:47:39;19.77;;;18.07;;
18893;SDS011;9579;49.488;8.226;2024-01-30T11:50:27;20.23;;;18.30;;
18893;SDS011;9579;49.488;8.226;2024-01-30T11:53:14;19.23;;;17.43;;
18893;SDS011;9579;49.488;8.226;2024-01-30T11:56:02;19.27;;;17.57;;
18893;SDS011;9579;49.488;8.226;2024-01-30T11:58:52;20.20;;;18.40;;
18893;SDS011;9579;49.488;8.226;2024-01-30T12:01:39;18.40;;;16.80;;
18893;SDS011;9579;49.488;8.226;2024-01-30T12:04:29;19.23;;;17.53;;
18893;SDS011;9579;49.488;8.226;2024-01-30T12:07:16;18.00;;;16.47;;
18893;SDS011;9579;49.488;8.226;2024-01-30T12:10:03;19.83;;;18.03;;
18893;SDS011;9579;49.488;8.226;2024-01-30T12:12:53;18.43;;;16.93;;
18893;SDS011;9579;49.488;8.226;2024-01-30T12:15:40;20.33;;;18.43;;
18893;SDS011;9579;49.488;8.226;2024-01-30T12:18:27;18.70;;;17.10;;
18893;SDS011;9579;49.488;8.226;2024-01-30T12:21:17;18.50;;;16.87;;
18893;SDS011;9579;49.488;8.226;2024-01-30T12:24:04;18.83;;;17.03;;
18893;SDS011;9579;49.488;8.226;2024-01-30T12:26:56;19.30;;;17.33;;
18893;SDS011;9579;49.488;8.226;2024-01-30T12:29:43;18.20;;;16.63;;
18893;SDS011;9579;49.488;8.226;2024-01-30T12:32:30;20.07;;;18.27;;
18893;SDS011;9579;49.488;8.226;2024-01-30T12:35:18;18.70;;;17.10;;
18893;SDS011;9579;49.488;8.226;2024-01-30T12:38:07;18.77;;;17.17;;
18893;SDS011;9579;49.488;8.226;2024-01-30T12:40:54;19.10;;;17.40;;
18893;SDS011;9579;49.488;8.226;2024-01-30T12:43:41;18.70;;;17.00;;
18893;SDS011;9579;49.488;8.226;2024-01-30T12:46:29;19.37;;;17.77;;
18893;SDS011;9579;49.488;8.226;2024-01-30T12:49:16;18.07;;;16.47;;
18893;SDS011;9579;49.488;8.226;2024-01-30T12:52:03;18.50;;;16.80;;
18893;SDS011;9579;49.488;8.226;2024-01-30T12:54:52;19.23;;;17.53;;
18893;SDS011;9579;49.488;8.226;2024-01-30T12:57:39;18.87;;;17.17;;
18893;SDS011;9579;49.488;8.226;2024-01-30T13:00:27;19.50;;;17.70;;
18893;SDS011;9579;49.488;8.226;2024-01-30T13:03:14;17.13;;;15.53;;
18893;SDS011;9579;49.488;8.226;2024-01-30T13:06:04;17.73;;;16.13;;
18893;SDS011;9579;49.488;8.226;2024-01-30T13:08:51;16.10;;;14.70;;
18893;SDS011;9579;49.488;8.226;2024-01-30T13:11:44;16.00;;;14.60;;
18893;SDS011;9579;49.488;8.226;2024-01-30T13:14:33;15.17;;;13.87;;
18893;SDS011;9579;49.488;8.226;2024-01-30T13:17:21;16.17;;;14.67;;
18893;SDS011;9579;49.488;8.226;2024-01-30T13:20:09;15.37;;;14.07;;
18893;SDS011;9579;49.488;8.226;2024-01-30T13:22:57;16.20;;;14.80;;
18893;SDS011;9579;49.488;8.226;2024-01-30T13:25:44;15.13;;;13.80;;
18893;SDS011;9579;49.488;8.226;2024-01-30T13:28:32;14.87;;;13.57;;
18893;SDS011;9579;49.488;8.226;2024-01-30T13:31:22;13.17;;;12.07;;
18893;SDS011;9579;49.488;8.226;2024-01-30T13:34:09;14.17;;;12.97;;
18893;SDS011;9579;49.488;8.226;2024-01-30T13:36:56;14.17;;;12.97;;
18893;SDS011;9579;49.488;8.226;2024-01-30T13:39:43;13.70;;;12.60;;
18893;SDS011;9579;49.488;8.226;2024-01-30T13:42:30;13.47;;;12.27;;
18893;SDS011;9579;49.488;8.226;2024-01-30T13:45:19;12.03;;;11.03;;
18893;SDS011;9579;49.488;8.226;2024-01-30T13:48:06;12.07;;;10.97;;
18893;SDS011;9579;49.488;8.226;2024-01-30T13:50:53;11.07;;;10.07;;
18893;SDS011;9579;49.488;8.226;2024-01-30T13:53:40;10.30;;;9.30;;
18893;SDS011;9579;49.488;8.226;2024-01-30T13:56:28;9.67;;;8.87;;
18893;SDS011;9579;49.488;8.226;2024-01-30T13:59:15;9.67;;;8.77;;
18893;SDS011;9579;49.488;8.226;2024-01-30T14:02:18;12.00;;;10.90;;
18893;SDS011;9579;49.488;8.226;2024-01-30T14:05:06;13.60;;;12.30;;
18893;SDS011;9579;49.488;8.226;2024-01-30T14:07:53;10.27;;;9.27;;
18893;SDS011;9579;49.488;8.226;2024-01-30T14:10:40;8.93;;;8.13;;
18893;SDS011;9579;49.488;8.226;2024-01-30T14:13:27;13.00;;;11.80;;
18893;SDS011;9579;49.488;8.226;2024-01-30T14:16:16;9.40;;;8.60;;
18893;SDS011;9579;49.488;8.226;2024-01-30T14:19:04;9.47;;;8.57;;
18893;SDS011;9579;49.488;8.226;2024-01-30T14:21:51;10.37;;;9.37;;
18893;SDS011;9579;49.488;8.226;2024-01-30T14:24:38;15.10;;;13.80;;
18893;SDS011;9579;49.488;8.226;2024-01-30T14:27:25;11.60;;;10.50;;
18893;SDS011;9579;49.488;8.226;2024-01-30T14:30:13;10.53;;;9.63;;
18893;SDS011;9579;49.488;8.226;2024-01-30T14:33:00;12.30;;;11.20;;
18893;SDS011;9579;49.488;8.226;2024-01-30T14:35:48;10.13;;;9.33;;
18893;SDS011;9579;49.488;8.226;2024-01-30T14:38:36;10.13;;;9.23;;
18893;SDS011;9579;49.488;8.226;2024-01-30T14:41:23;9.87;;;9.07;;
18893;SDS011;9579;49.488;8.226;2024-01-30T14:44:12;10.30;;;9.40;;
18893;SDS011;9579;49.488;8.226;2024-01-30T14:46:59;9.30;;;8.40;;
18893;SDS011;9579;49.488;8.226;2024-01-30T14:49:46;9.47;;;8.60;;
18893;SDS011;9579;49.488;8.226;2024-01-30T14:52:36;8.87;;;8.07;;
18893;SDS011;9579;49.488;8.226;2024-01-30T14:55:25;8.03;;;7.33;;
18893;SDS011;9579;49.488;8.226;2024-01-30T14:58:12;9.23;;;8.43;;
18893;SDS011;9579;49.488;8.226;2024-01-30T15:00:59;9.03;;;8.23;;
18893;SDS011;9579;49.488;8.226;2024-01-30T15:03:46;8.23;;;7.47;;
18893;SDS011;9579;49.488;8.226;2024-01-30T15:06:33;8.50;;;7.57;;
18893;SDS011;9579;49.488;8.226;2024-01-30T15:09:22;8.40;;;7.70;;
18893;SDS011;9579;49.488;8.226;2024-01-30T15:12:11;9.37;;;8.47;;
18893;SDS011;9579;49.488;8.226;2024-01-30T15:14:58;9.40;;;8.60;;
18893;SDS011;9579;49.488;8.226;2024-01-30T15:17:46;8.43;;;7.67;;
18893;SDS011;9579;49.488;8.226;2024-01-30T15:20:33;8.43;;;7.73;;
18893;SDS011;9579;49.488;8.226;2024-01-30T15:23:20;8.53;;;7.73;;
18893;SDS011;9579;49.488;8.226;2024-01-30T15:26:08;8.43;;;7.67;;
18893;SDS011;9579;49.488;8.226;2024-01-30T15:28:55;8.47;;;7.57;;
18893;SDS011;9579;49.488;8.226;2024-01-30T15:31:42;7.70;;;7.00;;
18893;SDS011;9579;49.488;8.226;2024-01-30T15:34:29;8.83;;;8.07;;
18893;SDS011;9579;49.488;8.226;2024-01-30T15:37:16;9.20;;;8.40;;
18893;SDS011;9579;49.488;8.226;2024-01-30T15:40:04;9.43;;;8.60;;
18893;SDS011;9579;49.488;8.226;2024-01-30T15:42:55;8.50;;;7.80;;
18893;SDS011;9579;49.488;8.226;2024-01-30T15:45:42;9.30;;;8.40;;
18893;SDS011;9579;49.488;8.226;2024-01-30T15:48:29;9.40;;;8.50;;
18893;SDS011;9579;49.488;8.226;2024-01-30T15:51:16;8.23;;;7.53;;
18893;SDS011;9579;49.488;8.226;2024-01-30T15:54:03;9.33;;;8.43;;
18893;SDS011;9579;49.488;8.226;2024-01-30T15:56:50;8.83;;;7.93;;
18893;SDS011;9579;49.488;8.226;2024-01-30T15:59:39;9.27;;;8.43;;
18893;SDS011;9579;49.488;8.226;2024-01-30T16:02:26;9.13;;;8.23;;
18893;SDS011;9579;49.488;8.226;2024-01-30T16:05:22;11.50;;;10.40;;
18893;SDS011;9579;49.488;8.226;2024-01-30T16:08:09;11.77;;;10.67;;
18893;SDS011;9579;49.488;8.226;2024-01-30T16:10:56;11.17;;;10.27;;
18893;SDS011;9579;49.488;8.226;2024-01-30T16:13:43;11.40;;;10.30;;
18893;SDS011;9579;49.488;8.226;2024-01-30T16:16:31;12.60;;;11.40;;
18893;SDS011;9579;49.488;8.226;2024-01-30T16:19:21;10.20;;;9.30;;
18893;SDS011;9579;49.488;8.226;2024-01-30T16:22:08;10.20;;;9.30;;
18893;SDS011;9579;49.488;8.226;2024-01-30T16:24:55;11.80;;;10.57;;
18893;SDS011;9579;49.488;8.226;2024-01-30T16:27:42;11.00;;;9.93;;
18893;SDS011;9579;49.488;8.226;2024-01-30T16:30:29;11.70;;;10.50;;
18893;SDS011;9579;49.488;8.226;2024-01-30T16:33:18;10.80;;;9.80;;
18893;SDS011;9579;49.488;8.226;2024-01-30T16:36:05;10.63;;;9.73;;
18893;SDS011;9579;49.488;8.226;2024-01-30T16:38:52;10.20;;;9.30;;
18893;SDS011;9579;49.488;8.226;2024-01-30T16:41:39;10.77;;;9.83;;
18893;SDS011;9579;49.488;8.226;2024-01-30T16:44:27;10.93;;;9.93;;
18893;SDS011;9579;49.488;8.226;2024-01-30T16:47:14;11.20;;;10.20;;
18893;SDS011;9579;49.488;8.226;2024-01-30T16:50:02;11.40;;;10.40;;
18893;SDS011;9579;49.488;8.226;2024-01-30T16:52:50;14.23;;;12.83;;
18893;SDS011;9579;49.488;8.226;2024-01-30T16:55:37;13.40;;;12.10;;
18893;SDS011;9579;49.488;8.226;2024-01-30T16:58:24;12.73;;;11.63;;
18893;SDS011;9579;49.488;8.226;2024-01-30T17:01:11;12.30;;;11.10;;
18893;SDS011;9579;49.488;8.226;2024-01-30T17:03:58;13.43;;;12.23;;
18893;SDS011;9579;49.488;8.226;2024-01-30T17:06:47;11.70;;;10.60;;
18893;SDS011;9579;49.488;8.226;2024-01-30T17:09:34;11.73;;;10.73;;
18893;SDS011;9579;49.488;8.226;2024-01-30T17:12:21;12.20;;;11.07;;
18893;SDS011;9579;49.488;8.226;2024-01-30T17:15:09;11.33;;;10.33;;
18893;SDS011;9579;49.488;8.226;2024-01-30T17:17:56;11.50;;;10.50;;
18893;SDS011;9579;49.488;8.226;2024-01-30T17:20:43;10.13;;;9.23;;